Time;durP1;ratioP1;P1;durP2;ratioP2;P2;SDS_P1;SDS_P2;PMS_P1;PMS_P2;Temp;Humidity;BMP_temperature;BMP_pressure;BME280_temperature;BME280_humidity;BME280_pressure;Samples;Min_cycle;Max_cycle;Signal;HPM_P1;HPM_P2
2023/06/20 00:00:41;;;;;;;10.18;7.28;;;;;;;21.13;62.30;99362.50;5050328;28;20029;-78
2023/06/20 00:03:06;;;;;;;10.50;8.00;;;;;;;21.04;62.60;99365.78;5034071;28;20068;-78
2023/06/20 00:05:32;;;;;;;11.93;8.50;;;;;;;20.95;62.89;99360.53;5050846;28;20029;-78
2023/06/20 00:07:57;;;;;;;12.77;8.85;;;;;;;20.94;63.54;99383.66;5034990;28;20064;-78
2023/06/20 00:10:23;;;;;;;9.60;8.30;;;;;;;20.84;63.64;99385.31;5013952;28;20068;-78
2023/06/20 00:12:48;;;;;;;10.10;8.40;;;;;;;20.75;64.35;99360.91;5013216;28;20026;-78
2023/06/20 00:15:14;;;;;;;13.00;8.63;;;;;;;20.57;64.84;99372.28;5031354;28;20021;-78
2023/06/20 00:17:40;;;;;;;12.65;8.90;;;;;;;20.65;64.69;99380.81;5013445;28;20116;-78
2023/06/20 00:20:06;;;;;;;14.32;8.10;;;;;;;20.56;64.86;99359.31;5013977;28;20040;-78
2023/06/20 00:22:34;;;;;;;14.65;8.65;;;;;;;20.62;64.59;99343.47;5048740;28;20025;-78
2023/06/20 00:25:04;;;;;;;12.02;8.82;;;;;;;20.70;64.90;99347.13;5015922;28;20029;-78
2023/06/20 00:27:30;;;;;;;10.90;8.40;;;;;;;20.72;64.51;99350.38;5044654;28;20090;-78
2023/06/20 00:29:55;;;;;;;13.70;8.13;;;;;;;20.43;65.66;99367.41;5043579;28;20439;-78
2023/06/20 00:32:21;;;;;;;13.45;8.63;;;;;;;20.58;64.83;99350.38;5013415;28;20025;-78
2023/06/20 00:34:46;;;;;;;12.25;8.55;;;;;;;20.50;64.51;99337.41;5036375;28;20029;-78
2023/06/20 00:37:12;;;;;;;17.10;10.85;;;;;;;20.45;65.73;99347.97;5023802;28;20029;-78
2023/06/20 00:39:37;;;;;;;24.55;14.35;;;;;;;20.13;66.44;99340.22;5031231;28;20087;-78
2023/06/20 00:42:04;;;;;;;38.75;19.80;;;;;;;19.99;68.22;99351.56;5032324;28;20029;-78
2023/06/20 00:44:29;;;;;;;38.00;21.58;;;;;;;19.83;68.31;99349.84;5013453;28;20036;-78
2023/06/20 00:46:55;;;;;;;31.02;20.52;;;;;;;19.88;68.03;99352.31;5018052;28;20033;-78
2023/06/20 00:49:21;;;;;;;24.55;16.52;;;;;;;19.67;68.85;99353.06;5050984;28;20095;-78
2023/06/20 00:51:48;;;;;;;19.67;12.25;;;;;;;19.27;69.86;99355.75;5029459;28;20033;-78
2023/06/20 00:54:14;;;;;;;18.70;11.65;;;;;;;19.42;69.88;99342.41;5031229;28;20039;-78
2023/06/20 00:56:41;;;;;;;14.20;9.98;;;;;;;19.48;69.58;99349.34;5013411;28;20112;-78
2023/06/20 00:59:07;;;;;;;11.05;8.57;;;;;;;19.08;70.51;99359.69;5013395;28;20088;-78
2023/06/20 01:01:33;;;;;;;13.30;9.07;;;;;;;19.07;69.95;99343.91;5018918;28;20037;-78
2023/06/20 01:04:00;;;;;;;9.90;8.05;;;;;;;19.08;70.13;99363.31;5037128;28;20036;-78
2023/06/20 01:06:47;;;;;;;9.93;7.88;;;;;;;19.18;70.32;99358.13;5051008;28;20017;-78
2023/06/20 01:09:26;;;;;;;11.38;8.18;;;;;;;18.91;70.51;99359.13;5041062;28;20030;-78
2023/06/20 01:11:57;;;;;;;9.98;7.55;;;;;;;19.06;70.86;99368.56;5045299;28;20025;-78
2023/06/20 01:14:48;;;;;;;11.40;8.63;;;;;;;19.34;69.29;99375.59;5031541;28;20022;-78
2023/06/20 01:17:23;;;;;;;12.27;7.97;;;;;;;19.50;68.47;99377.31;5028382;28;20030;-78
2023/06/20 01:20:17;;;;;;;11.00;8.20;;;;;;;19.58;68.33;99378.16;5022194;28;20026;-78
2023/06/20 01:23:03;;;;;;;12.15;8.60;;;;;;;19.52;68.56;99379.72;5023247;28;20040;-78
2023/06/20 01:25:38;;;;;;;13.65;8.02;;;;;;;19.66;68.18;99373.31;5012744;28;20502;-78
2023/06/20 01:28:21;;;;;;;10.15;8.70;;;;;;;19.63;68.28;99369.25;5017800;28;20028;-78
2023/06/20 01:30:56;;;;;;;9.77;8.00;;;;;;;19.66;68.10;99371.28;5051599;28;20033;-78
2023/06/20 01:33:30;;;;;;;12.52;7.68;;;;;;;19.74;68.02;99372.94;5036767;28;20071;-78
2023/06/20 01:35:59;;;;;;;13.77;9.55;;;;;;;19.82;67.80;99370.94;5041657;28;20030;-78
2023/06/20 01:38:28;;;;;;;11.20;9.13;;;;;;;19.90;67.41;99352.72;5019074;28;20087;-78
2023/06/20 01:40:55;;;;;;;9.50;7.55;;;;;;;19.77;67.46;99352.25;5032547;28;20035;-78
2023/06/20 01:43:22;;;;;;;22.65;8.73;;;;;;;19.75;67.44;99346.19;5030938;28;20025;-78
2023/06/20 01:45:50;;;;;;;15.07;9.27;;;;;;;20.01;66.95;99366.94;5024182;28;20036;-78
2023/06/20 01:48:18;;;;;;;12.20;8.63;;;;;;;19.63;67.57;99358.72;5035029;28;20029;-78
2023/06/20 01:50:46;;;;;;;8.93;6.93;;;;;;;19.26;69.30;99364.63;5045523;28;20039;-78
2023/06/20 01:53:12;;;;;;;13.93;7.97;;;;;;;19.43;68.66;99358.25;5027922;28;20048;-78
2023/06/20 01:55:41;;;;;;;13.95;8.10;;;;;;;19.10;69.71;99348.75;5030662;28;20553;-77
2023/06/20 01:58:09;;;;;;;16.60;8.48;;;;;;;19.31;69.44;99338.75;5016332;28;20389;-78
2023/06/20 02:00:36;;;;;;;10.00;8.38;;;;;;;19.62;68.43;99359.13;5015289;28;20503;-78
2023/06/20 02:03:04;;;;;;;20.60;8.68;;;;;;;19.65;68.29;99349.78;5031414;28;20029;-78
2023/06/20 02:05:32;;;;;;;19.45;8.43;;;;;;;19.79;67.39;99363.22;5016819;28;20036;-78
2023/06/20 02:08:00;;;;;;;13.07;8.88;;;;;;;19.70;67.28;99360.78;5016754;28;20117;-78
2023/06/20 02:10:26;;;;;;;13.85;9.50;;;;;;;19.61;67.58;99369.66;5033096;28;20468;-78
2023/06/20 02:12:54;;;;;;;16.70;9.57;;;;;;;19.51;68.46;99364.75;5053125;28;20055;-78
2023/06/20 02:15:22;;;;;;;16.00;10.20;;;;;;;19.66;68.13;99365.59;5019371;28;20021;-78
2023/06/20 02:17:48;;;;;;;11.98;8.85;;;;;;;19.90;67.34;99363.25;5032893;28;20131;-78
2023/06/20 02:20:14;;;;;;;21.13;11.10;;;;;;;19.89;67.54;99367.28;5053026;28;20468;-78
2023/06/20 02:22:44;;;;;;;22.30;12.68;;;;;;;19.77;67.46;99366.44;5052011;28;20100;-78
2023/06/20 02:25:12;;;;;;;;;;;;;;;19.54;68.57;99372.47;5015333;28;20032;-78
2023/06/20 02:27:39;;;;;;;24.55;15.07;;;;;;;19.40;69.12;99352.56;5048787;28;19998;-78
2023/06/20 02:30:08;;;;;;;22.13;15.93;;;;;;;19.45;69.55;99378.50;5025384;28;20025;-78
2023/06/20 02:32:36;;;;;;;34.15;17.70;;;;;;;19.24;70.24;99361.38;5015525;28;20017;-78
2023/06/20 02:35:03;;;;;;;38.22;18.08;;;;;;;19.54;69.96;99372.47;5014984;28;20048;-77
2023/06/20 02:37:32;;;;;;;34.85;18.52;;;;;;;19.04;71.30;99354.00;5015360;28;20075;-78
2023/06/20 02:39:57;;;;;;;29.98;18.85;;;;;;;19.22;70.86;99358.94;5022998;28;20032;-78
2023/06/20 02:42:24;;;;;;;26.77;16.60;;;;;;;19.21;70.50;99357.31;5044042;28;20029;-77
2023/06/20 02:44:49;;;;;;;24.88;16.52;;;;;;;19.29;70.87;99375.16;5023799;28;20076;-78
2023/06/20 02:47:29;;;;;;;28.45;17.23;;;;;;;19.42;70.42;99375.66;5042601;28;20439;-78
2023/06/20 02:50:06;;;;;;;30.95;18.75;;;;;;;19.44;70.38;99376.06;5015669;28;20091;-78
2023/06/20 02:52:39;;;;;;;33.60;20.05;;;;;;;19.35;70.81;99374.38;5017823;28;20025;-78
2023/06/20 02:55:08;;;;;;;38.80;19.50;;;;;;;19.52;70.32;99379.72;5025790;28;20028;-78
2023/06/20 02:57:38;;;;;;;32.85;19.55;;;;;;;19.57;70.54;99377.31;5015744;28;20033;-78
2023/06/20 03:00:08;;;;;;;37.70;21.95;;;;;;;19.40;70.42;99364.69;5034740;28;20047;-78
2023/06/20 03:02:38;;;;;;;32.55;22.27;;;;;;;19.47;70.41;99370.41;5029507;28;20069;-78
2023/06/20 03:05:10;;;;;;;37.95;23.75;;;;;;;19.46;70.42;99379.31;5014902;28;20020;-78
2023/06/20 03:07:39;;;;;;;34.03;20.75;;;;;;;19.12;71.46;99377.53;5015533;28;20035;-78
2023/06/20 03:10:06;;;;;;;41.80;20.95;;;;;;;19.24;71.61;99386.91;5025818;28;20017;-78
2023/06/20 03:12:31;;;;;;;33.75;21.27;;;;;;;19.15;71.43;99390.88;5014965;28;20041;-78
2023/06/20 03:14:57;;;;;;;33.47;19.55;;;;;;;18.79;72.61;99396.28;5015214;28;20025;-79
2023/06/20 03:17:23;;;;;;;32.72;20.65;;;;;;;18.73;73.09;99400.69;5014209;28;20570;-78
2023/06/20 03:19:48;;;;;;;29.92;20.85;;;;;;;18.89;72.75;99403.25;5038603;28;20515;-79
2023/06/20 03:22:14;;;;;;;35.85;21.75;;;;;;;18.82;73.05;99400.34;5036083;28;20100;-79
2023/06/20 03:24:39;;;;;;;36.75;22.45;;;;;;;18.84;73.20;99406.44;5018421;28;20030;-78
2023/06/20 03:27:05;;;;;;;39.25;23.77;;;;;;;18.93;72.50;99404.88;5033240;28;20400;-79
2023/06/20 03:29:31;;;;;;;35.30;22.27;;;;;;;18.88;72.88;99404.44;5048609;28;20422;-78
2023/06/20 03:31:56;;;;;;;33.83;20.67;;;;;;;18.79;72.94;99390.63;5049124;28;20419;-78
2023/06/20 03:34:22;;;;;;;38.28;22.27;;;;;;;18.93;72.85;99402.06;5023323;28;20020;-78
2023/06/20 03:36:47;;;;;;;31.85;20.50;;;;;;;19.01;72.53;99414.31;5050137;28;20032;-78
2023/06/20 03:39:13;;;;;;;41.97;26.85;;;;;;;19.01;72.51;99413.47;5034446;28;20411;-78
2023/06/20 03:41:38;;;;;;;39.72;21.90;;;;;;;18.94;72.38;99406.53;5014902;28;20103;-78
2023/06/20 03:44:04;;;;;;;31.13;18.42;;;;;;;18.80;73.48;99403.56;5026764;28;20104;-78
2023/06/20 03:46:29;;;;;;;32.28;18.50;;;;;;;18.85;73.97;99405.22;5050863;28;20032;-78
2023/06/20 03:48:54;;;;;;;34.22;18.25;;;;;;;18.66;74.43;99385.25;5028545;28;20411;-78
2023/06/20 03:51:20;;;;;;;38.70;17.55;;;;;;;18.83;74.16;99399.16;5049841;28;20025;-79
2023/06/20 03:53:45;;;;;;;22.27;15.63;;;;;;;18.88;73.84;99413.75;5051685;28;20078;-78
2023/06/20 03:56:11;;;;;;;41.65;17.23;;;;;;;18.79;73.81;99407.63;5032883;28;20071;-81
2023/06/20 03:58:39;;;;;;;32.30;16.67;;;;;;;18.83;74.01;99408.47;5029637;28;20028;-77
2023/06/20 04:01:06;;;;;;;34.90;14.63;;;;;;;18.95;73.03;99413.00;5045461;28;20091;-75
2023/06/20 04:03:32;;;;;;;24.80;14.35;;;;;;;18.94;73.13;99420.72;5050527;28;20565;-75
2023/06/20 04:06:01;;;;;;;28.42;13.75;;;;;;;18.99;71.84;99416.66;5033441;28;20037;-75
2023/06/20 04:08:30;;;;;;;32.55;15.43;;;;;;;19.19;72.07;99434.28;5033152;28;20508;-75
2023/06/20 04:10:56;;;;;;;29.02;17.02;;;;;;;19.29;71.46;99427.03;5038760;28;20021;-75
2023/06/20 04:13:21;;;;;;;32.38;19.67;;;;;;;19.49;71.00;99430.38;5026591;28;20555;-75
2023/06/20 04:15:47;;;;;;;32.50;16.30;;;;;;;19.61;69.97;99425.56;5016561;28;20109;-75
2023/06/20 04:18:13;;;;;;;31.58;13.52;;;;;;;19.75;69.13;99431.31;5030878;28;20049;-75
2023/06/20 04:20:38;;;;;;;21.33;11.90;;;;;;;19.87;68.68;99429.31;5017872;28;20569;-75
2023/06/20 04:23:03;;;;;;;14.90;10.50;;;;;;;19.82;68.22;99430.53;5050674;28;20079;-75
2023/06/20 04:25:29;;;;;;;20.23;11.15;;;;;;;19.89;68.12;99430.56;5050465;28;20033;-75
2023/06/20 04:27:55;;;;;;;23.98;11.02;;;;;;;19.76;69.20;99435.75;5020510;28;20025;-75
2023/06/20 04:30:22;;;;;;;16.58;9.77;;;;;;;19.90;69.17;99440.69;5018606;28;20029;-74
2023/06/20 04:32:47;;;;;;;18.70;9.63;;;;;;;19.81;69.05;99437.41;5049115;28;20029;-74
2023/06/20 04:35:14;;;;;;;15.50;8.50;;;;;;;19.87;68.96;99437.84;5046202;28;20388;-74
2023/06/20 04:37:40;;;;;;;14.07;8.25;;;;;;;19.74;68.95;99440.22;5028785;28;20448;-75
2023/06/20 04:40:07;;;;;;;17.05;8.75;;;;;;;19.89;68.26;99443.91;5042465;28;20063;-74
2023/06/20 04:42:33;;;;;;;16.80;7.70;;;;;;;19.96;68.00;99446.81;5040663;28;20033;-75
2023/06/20 04:44:58;;;;;;;15.07;7.95;;;;;;;20.16;67.52;99452.19;5016317;28;20580;-75
2023/06/20 04:47:24;;;;;;;20.05;8.35;;;;;;;20.26;66.81;99445.69;5039249;28;20557;-75
2023/06/20 04:49:49;;;;;;;16.73;9.02;;;;;;;20.50;66.31;99448.97;5039075;28;20017;-75
2023/06/20 04:52:16;;;;;;;16.05;8.88;;;;;;;20.77;65.59;99442.94;5022821;28;20088;-75
2023/06/20 04:54:42;;;;;;;11.95;8.98;;;;;;;21.12;64.19;99444.16;5048794;28;20021;-74
2023/06/20 04:57:08;;;;;;;10.35;8.60;;;;;;;21.32;63.95;99440.88;5037504;28;20403;-75
2023/06/20 04:59:35;;;;;;;14.20;9.20;;;;;;;21.38;64.19;99456.31;5031869;28;20040;-74
2023/06/20 05:02:05;;;;;;;16.45;9.13;;;;;;;21.71;63.68;99457.03;5019241;28;20031;-75
2023/06/20 05:04:31;;;;;;;13.15;9.77;;;;;;;22.01;61.68;99455.72;5035008;28;20021;-75
2023/06/20 05:06:57;;;;;;;17.90;12.10;;;;;;;22.37;60.40;99454.69;5015813;28;20523;-75
2023/06/20 05:09:22;;;;;;;25.65;18.25;;;;;;;22.72;58.93;99463.47;5041584;28;20024;-75
2023/06/20 05:11:48;;;;;;;18.17;13.35;;;;;;;22.97;57.46;99462.44;5018382;28;20021;-75
2023/06/20 05:14:13;;;;;;;19.45;10.50;;;;;;;22.96;57.61;99460.81;5042117;28;20024;-76
2023/06/20 05:16:40;;;;;;;15.18;9.48;;;;;;;23.22;56.02;99455.69;5035942;28;20087;-74
2023/06/20 05:19:06;;;;;;;10.07;7.68;;;;;;;23.47;55.62;99458.34;5019633;28;20044;-78
2023/06/20 05:21:31;;;;;;;23.25;9.32;;;;;;;23.51;54.31;99456.25;5030987;28;20864;-78
2023/06/20 05:23:57;;;;;;;15.27;8.85;;;;;;;23.58;54.00;99455.34;5045760;28;21407;-76
2023/06/20 05:26:22;;;;;;;11.98;7.63;;;;;;;23.75;53.79;99452.69;5030949;28;20028;-77
2023/06/20 05:28:47;;;;;;;12.00;7.13;;;;;;;23.87;53.39;99457.84;5048022;28;20115;-77
2023/06/20 05:31:13;;;;;;;14.05;6.28;;;;;;;23.81;51.35;99459.56;5027423;28;20094;-76
2023/06/20 05:33:38;;;;;;;12.05;6.65;;;;;;;23.92;51.44;99460.25;5028887;28;20064;-76
2023/06/20 05:36:04;;;;;;;10.25;6.95;;;;;;;23.92;50.94;99448.84;5015098;28;20033;-76
2023/06/20 05:38:31;;;;;;;8.88;6.80;;;;;;;23.65;51.30;99446.72;5045611;28;20474;-77
2023/06/20 05:40:58;;;;;;;11.18;6.55;;;;;;;23.36;50.78;99444.16;5012087;28;20408;-83
2023/06/20 05:43:24;;;;;;;15.43;7.68;;;;;;;23.49;51.68;99441.59;5031384;28;20076;-76
2023/06/20 05:45:49;;;;;;;15.02;6.82;;;;;;;23.34;49.95;99448.66;5040028;28;20544;-75
2023/06/20 05:48:15;;;;;;;12.13;6.78;;;;;;;23.32;50.53;99443.41;5032892;28;20024;-77
2023/06/20 05:50:41;;;;;;;14.68;7.70;;;;;;;23.47;50.80;99444.06;5028344;28;20022;-77
2023/06/20 05:53:07;;;;;;;10.57;6.90;;;;;;;23.51;51.04;99441.16;5016546;28;20058;-80
2023/06/20 05:55:33;;;;;;;11.35;6.28;;;;;;;23.79;49.91;99447.78;5024201;28;20029;-75
2023/06/20 05:57:58;;;;;;;7.93;6.72;;;;;;;24.00;49.87;99443.81;5041404;28;20025;-75
2023/06/20 06:00:24;;;;;;;11.82;7.05;;;;;;;24.14;48.76;99440.00;5041612;28;20052;-77
2023/06/20 06:02:49;;;;;;;12.02;6.90;;;;;;;24.21;48.67;99439.91;5044398;28;20514;-76
2023/06/20 06:05:15;;;;;;;15.07;6.50;;;;;;;24.41;47.32;99433.50;5036514;28;20500;-76
2023/06/20 06:07:40;;;;;;;16.63;6.70;;;;;;;24.56;47.32;99439.00;5047444;28;20025;-76
2023/06/20 06:10:09;;;;;;;13.07;6.72;;;;;;;24.56;47.46;99448.38;5032925;28;20025;-76
2023/06/20 06:12:36;;;;;;;9.50;6.88;;;;;;;24.45;46.58;99451.38;5050251;28;20507;-76
2023/06/20 06:15:03;;;;;;;10.27;7.03;;;;;;;24.16;46.67;99448.97;5046172;28;20407;-75
2023/06/20 06:17:30;;;;;;;13.13;7.22;;;;;;;24.41;46.99;99450.66;5040286;28;20067;-76
2023/06/20 06:19:56;;;;;;;9.38;7.18;;;;;;;24.38;47.11;99446.59;5016267;28;20021;-76
2023/06/20 06:22:22;;;;;;;9.02;6.82;;;;;;;24.70;46.18;99450.19;5033438;28;20538;-76
2023/06/20 06:24:47;;;;;;;10.35;7.28;;;;;;;24.63;45.84;99444.59;5043909;28;20036;-76
2023/06/20 06:27:13;;;;;;;16.63;7.65;;;;;;;25.01;46.40;99441.56;5047104;28;20025;-76
2023/06/20 06:29:39;;;;;;;7.70;6.75;;;;;;;25.37;44.76;99432.31;5048001;28;20024;-76
2023/06/20 06:32:06;;;;;;;44.08;8.65;;;;;;;25.28;44.58;99434.09;5041087;28;20029;-76
2023/06/20 06:34:32;;;;;;;11.13;7.18;;;;;;;25.72;44.11;99429.19;5023943;28;20462;-76
2023/06/20 06:36:58;;;;;;;9.32;7.72;;;;;;;26.01;43.27;99422.88;5047383;28;20025;-76
2023/06/20 06:39:24;;;;;;;26.13;8.50;;;;;;;26.02;43.47;99418.75;5026240;28;20480;-76
2023/06/20 06:41:49;;;;;;;14.85;8.07;;;;;;;26.12;43.64;99419.75;5044880;28;20469;-76
2023/06/20 06:44:16;;;;;;;9.20;6.50;;;;;;;26.32;42.86;99414.00;5044148;28;20060;-76
2023/06/20 06:46:41;;;;;;;10.40;7.38;;;;;;;25.99;43.43;99418.81;5035037;28;20044;-76
2023/06/20 06:49:07;;;;;;;7.03;6.32;;;;;;;25.85;42.88;99414.22;5053125;28;20039;-76
2023/06/20 06:51:33;;;;;;;9.35;7.18;;;;;;;25.76;42.71;99412.75;5034145;28;20056;-76
2023/06/20 06:53:58;;;;;;;14.57;7.05;;;;;;;25.74;43.73;99403.00;5049931;28;20557;-76
2023/06/20 06:56:24;;;;;;;9.18;6.70;;;;;;;26.11;43.30;99408.72;5033037;28;20025;-76
2023/06/20 06:58:49;;;;;;;8.05;6.68;;;;;;;26.32;42.48;99408.28;5023600;28;20049;-75
2023/06/20 07:01:15;;;;;;;11.50;6.35;;;;;;;26.76;41.40;99410.91;5013646;28;20052;-76
2023/06/20 07:03:40;;;;;;;10.55;6.95;;;;;;;26.68;41.67;99398.00;5047447;28;20100;-76
2023/06/20 07:06:06;;;;;;;11.18;7.40;;;;;;;26.91;42.35;99401.97;5050955;28;20072;-75
2023/06/20 07:08:31;;;;;;;7.43;6.72;;;;;;;26.66;41.98;99386.16;5035674;28;20022;-75
2023/06/20 07:10:56;;;;;;;14.10;6.88;;;;;;;26.76;40.69;99396.56;5033159;28;20029;-75
2023/06/20 07:13:23;;;;;;;10.15;6.65;;;;;;;26.96;41.64;99392.00;5035742;28;20026;-76
2023/06/20 07:15:49;;;;;;;12.32;7.15;;;;;;;27.01;41.05;99398.00;5033174;28;20154;-75
2023/06/20 07:18:14;;;;;;;7.38;6.32;;;;;;;26.62;40.01;99394.06;5032279;28;20173;-75
2023/06/20 07:20:40;;;;;;;12.23;6.35;;;;;;;26.82;40.64;99393.16;5032780;28;20025;-75
2023/06/20 07:23:05;;;;;;;8.45;6.40;;;;;;;26.85;41.13;99398.00;5040546;28;20028;-75
2023/06/20 07:25:30;;;;;;;10.95;5.82;;;;;;;26.93;41.09;99396.59;5039830;28;20032;-75
2023/06/20 07:27:57;;;;;;;11.35;6.25;;;;;;;26.96;40.91;99387.06;5037324;28;20096;-75
2023/06/20 07:30:22;;;;;;;9.43;6.38;;;;;;;27.26;40.09;99395.72;5019776;28;20048;-75
2023/06/20 07:32:48;;;;;;;11.00;6.65;;;;;;;27.28;39.98;99390.31;5044131;28;20029;-75
2023/06/20 07:35:14;;;;;;;12.93;6.43;;;;;;;27.21;40.22;99399.94;5034191;28;20017;-75
2023/06/20 07:37:40;;;;;;;10.25;6.50;;;;;;;26.85;39.66;99398.00;5040825;28;20063;-75
2023/06/20 07:40:07;;;;;;;8.30;6.20;;;;;;;27.02;39.94;99408.22;5019501;28;20045;-75
2023/06/20 07:42:33;;;;;;;6.28;5.68;;;;;;;26.96;38.82;99410.03;5014810;28;20092;-75
2023/06/20 07:44:58;;;;;;;11.55;5.85;;;;;;;27.31;38.05;99410.31;5031800;28;20021;-75
2023/06/20 07:47:24;;;;;;;9.13;5.90;;;;;;;27.02;40.44;99407.41;5032270;28;20424;-75
2023/06/20 07:49:49;;;;;;;8.10;6.18;;;;;;;27.16;40.60;99406.25;5032270;28;20021;-75
2023/06/20 07:52:15;;;;;;;8.30;6.78;;;;;;;27.55;40.45;99407.22;5035260;28;20631;-75
2023/06/20 07:54:40;;;;;;;8.63;6.70;;;;;;;26.93;40.89;99405.19;5038506;28;20032;-75
2023/06/20 07:57:06;;;;;;;5.93;5.32;;;;;;;26.69;42.02;99405.34;5044384;28;20025;-74
2023/06/20 07:59:32;;;;;;;8.45;5.70;;;;;;;26.75;42.24;99408.50;5045293;28;20403;-75
2023/06/20 08:01:58;;;;;;;8.38;6.22;;;;;;;26.99;42.08;99420.59;5049355;28;20025;-75
2023/06/20 08:04:23;;;;;;;9.48;6.32;;;;;;;27.26;40.54;99410.06;5050857;28;20036;-75
2023/06/20 08:06:49;;;;;;;9.85;6.60;;;;;;;27.37;41.15;99421.25;5032976;28;20444;-75
2023/06/20 08:09:14;;;;;;;12.07;6.63;;;;;;;27.79;40.76;99421.31;5041877;28;20044;-75
2023/06/20 08:11:40;;;;;;;9.20;6.07;;;;;;;28.12;39.73;99406.78;5051515;28;20559;-77
2023/06/20 08:14:06;;;;;;;19.73;7.75;;;;;;;28.30;39.74;99416.94;5051867;28;20021;-76
2023/06/20 08:16:31;;;;;;;26.92;8.30;;;;;;;28.84;38.27;99408.63;5043872;28;20087;-75
2023/06/20 08:18:57;;;;;;;8.30;5.55;;;;;;;28.61;37.55;99407.75;5014637;28;20045;-77
2023/06/20 08:21:22;;;;;;;7.05;5.70;;;;;;;28.21;39.44;99405.31;5031350;28;20051;-74
2023/06/20 08:23:48;;;;;;;11.02;5.30;;;;;;;28.25;38.34;99415.44;5021160;28;20419;-77
2023/06/20 08:26:13;;;;;;;12.07;6.00;;;;;;;28.15;39.00;99413.69;5026915;28;20032;-79
2023/06/20 08:28:39;;;;;;;7.95;5.65;;;;;;;27.78;39.28;99410.28;5038214;28;20547;-76
2023/06/20 08:31:04;;;;;;;9.45;5.68;;;;;;;27.84;38.60;99412.13;5035907;28;20029;-78
2023/06/20 08:33:30;;;;;;;7.18;5.35;;;;;;;28.52;36.58;99411.28;5026584;28;20017;-77
2023/06/20 08:35:56;;;;;;;11.25;5.78;;;;;;;28.81;36.01;99415.28;5016559;28;20025;-78
2023/06/20 08:38:22;;;;;;;5.65;5.10;;;;;;;28.73;36.64;99409.81;5041495;28;20413;-78
2023/06/20 08:40:47;;;;;;;6.88;5.72;;;;;;;28.77;37.42;99406.00;5049107;28;20025;-74
2023/06/20 08:43:16;;;;;;;6.57;5.65;;;;;;;29.18;36.55;99404.19;5023234;28;20147;-81
2023/06/20 08:45:41;;;;;;;11.00;6.03;;;;;;;29.51;35.27;99397.31;5013967;28;20479;-77
2023/06/20 08:48:07;;;;;;;10.75;6.75;;;;;;;29.07;36.93;99400.88;5041944;28;20061;-74
2023/06/20 08:50:32;;;;;;;10.90;6.43;;;;;;;29.23;37.72;99399.91;5039597;28;20025;-72
2023/06/20 08:53:03;;;;;;;16.63;6.45;;;;;;;29.73;37.35;99405.94;5026365;28;20040;-80
2023/06/20 08:55:30;;;;;;;26.17;9.02;;;;;;;29.31;37.22;99401.25;5044325;28;20029;-81
2023/06/20 08:57:56;;;;;;;27.67;8.48;;;;;;;29.33;34.55;99389.28;5047787;28;20024;-76
2023/06/20 09:00:22;;;;;;;9.65;6.45;;;;;;;29.46;35.01;99377.72;5010785;28;20032;-79
2023/06/20 09:02:52;;;;;;;11.73;5.80;;;;;;;29.44;35.30;99392.59;5048437;28;20128;-76
2023/06/20 09:05:18;;;;;;;12.00;5.35;;;;;;;28.98;33.46;99390.09;5036703;28;20100;-75
2023/06/20 09:07:44;;;;;;;9.40;5.68;;;;;;;28.93;33.97;99382.84;5030794;28;20029;-71
2023/06/20 09:10:17;;;;;;;5.88;4.80;;;;;;;29.17;33.03;99393.94;5035657;28;20029;-75
2023/06/20 09:12:47;;;;;;;6.18;4.95;;;;;;;29.27;32.56;99387.00;5020014;28;20404;-77
2023/06/20 09:15:17;;;;;;;8.35;4.82;;;;;;;29.90;32.65;99374.81;5036859;28;20393;-81
2023/06/20 09:17:44;;;;;;;4.65;4.07;;;;;;;29.72;32.27;99392.81;5031563;28;20041;-78
2023/06/20 09:20:16;;;;;;;5.13;4.32;;;;;;;29.45;32.28;99394.22;5031959;28;20029;-74
2023/06/20 09:22:42;;;;;;;6.85;4.22;;;;;;;29.91;32.49;99378.50;5027733;28;20025;-73
2023/06/20 09:25:10;;;;;;;6.82;4.47;;;;;;;30.37;30.51;99383.72;5017790;28;20031;-73
2023/06/20 09:27:37;;;;;;;10.07;5.82;;;;;;;30.28;30.75;99384.47;5036553;28;20052;-75
2023/06/20 09:30:03;;;;;;;5.65;4.93;;;;;;;29.64;30.87;99388.56;5050865;28;20457;-73
2023/06/20 09:32:37;;;;;;;9.85;8.13;;;;;;;30.09;30.33;99384.41;5041745;28;20033;-76
2023/06/20 09:35:04;;;;;;;5.85;5.05;;;;;;;29.91;30.42;99392.91;5005464;28;20021;-78
2023/06/20 09:37:43;;;;;;;7.78;5.15;;;;;;;30.14;30.33;99382.16;5028453;28;20566;-76
2023/06/20 09:40:16;;;;;;;5.78;3.72;;;;;;;30.44;28.99;99391.28;5032596;28;20572;-77
2023/06/20 09:42:43;;;;;;;11.35;5.82;;;;;;;30.60;29.90;99385.22;5033185;28;20489;-76
2023/06/20 09:45:11;;;;;;;7.43;5.30;;;;;;;29.89;31.91;99383.94;5040709;28;20416;-77
2023/06/20 09:47:38;;;;;;;6.68;5.13;;;;;;;29.67;31.09;99385.56;5031473;28;20021;-75
2023/06/20 09:50:13;;;;;;;4.93;4.43;;;;;;;29.36;32.39;99394.09;5038027;28;20025;-76
2023/06/20 09:53:00;;;;;;;5.18;4.07;;;;;;;29.61;32.04;99390.31;5046588;28;20040;-77
2023/06/20 09:55:26;;;;;;;6.85;3.92;;;;;;;29.45;31.36;99397.09;5049790;28;20027;-75
2023/06/20 09:57:58;;;;;;;11.07;4.75;;;;;;;29.10;30.79;99388.44;5029541;28;20025;-75
2023/06/20 10:00:26;;;;;;;7.63;3.72;;;;;;;29.41;29.86;99388.56;5030686;28;20024;-75
2023/06/20 10:02:53;;;;;;;6.70;4.45;;;;;;;29.83;29.39;99367.25;5022118;28;20025;-75
2023/06/20 10:05:21;;;;;;;8.90;4.28;;;;;;;29.94;28.49;99371.81;5044998;28;20120;-75
2023/06/20 10:07:48;;;;;;;6.68;4.60;;;;;;;30.12;28.80;99368.25;5044268;28;20083;-75
2023/06/20 10:10:15;;;;;;;6.60;4.18;;;;;;;30.51;29.09;99365.00;5052546;28;20027;-75
2023/06/20 10:12:43;;;;;;;6.75;3.83;;;;;;;30.64;27.44;99370.69;5033230;28;20449;-75
2023/06/20 10:15:09;;;;;;;10.65;3.85;;;;;;;30.64;26.91;99377.25;5038961;28;20038;-75
2023/06/20 10:17:39;;;;;;;5.15;4.15;;;;;;;30.07;26.96;99374.59;5045545;28;20125;-75
2023/06/20 10:20:09;;;;;;;5.47;3.95;;;;;;;30.16;27.24;99374.66;5044601;28;20025;-75
2023/06/20 10:22:41;;;;;;;6.57;3.97;;;;;;;30.18;26.41;99383.63;5029651;28;20056;-75
2023/06/20 10:25:13;;;;;;;5.43;3.80;;;;;;;30.23;27.62;99371.50;5048279;28;20057;-75
2023/06/20 10:27:59;;;;;;;7.25;4.45;;;;;;;30.43;27.22;99376.03;5052228;28;20044;-75
2023/06/20 10:30:49;;;;;;;4.85;3.95;;;;;;;30.42;25.28;99367.88;5030782;28;20109;-75
2023/06/20 10:33:17;;;;;;;9.35;5.07;;;;;;;30.78;25.85;99364.31;5026851;28;20024;-75
2023/06/20 10:35:56;;;;;;;6.78;3.83;;;;;;;30.99;25.92;99363.84;5042564;28;20026;-75
2023/06/20 10:38:22;;;;;;;5.93;4.15;;;;;;;31.17;25.62;99354.38;5045993;28;20040;-75
2023/06/20 10:40:47;;;;;;;7.03;4.55;;;;;;;31.07;27.54;99359.38;5049252;28;20027;-75
2023/06/20 10:43:17;;;;;;;6.28;4.43;;;;;;;31.00;28.18;99362.56;5049842;28;20095;-75
2023/06/20 10:45:57;;;;;;;8.00;4.22;;;;;;;31.20;26.68;99356.34;5047421;28;20025;-75
2023/06/20 10:48:23;;;;;;;7.15;4.32;;;;;;;30.87;27.30;99354.84;5046726;28;20071;-75
2023/06/20 10:50:48;;;;;;;12.23;4.80;;;;;;;30.98;27.53;99365.13;5041612;28;20036;-75
2023/06/20 10:53:14;;;;;;;8.77;4.25;;;;;;;30.98;27.84;99365.13;5027105;28;20029;-75
2023/06/20 10:55:40;;;;;;;7.22;4.20;;;;;;;31.05;26.99;99361.94;5030976;28;20027;-75
2023/06/20 10:58:06;;;;;;;4.80;4.40;;;;;;;30.94;27.17;99354.53;5051745;28;20021;-75
2023/06/20 11:00:31;;;;;;;5.75;4.65;;;;;;;30.68;28.37;99346.19;5023997;28;20100;-75
2023/06/20 11:02:57;;;;;;;7.43;5.13;;;;;;;30.83;27.88;99365.75;5044560;28;20025;-75
2023/06/20 11:05:27;;;;;;;6.57;4.60;;;;;;;31.13;27.08;99345.09;5050677;28;20456;-75
2023/06/20 11:08:01;;;;;;;10.07;4.47;;;;;;;31.12;27.33;99338.50;5048047;28;20040;-77
2023/06/20 11:10:29;;;;;;;4.53;3.90;;;;;;;31.13;26.86;99331.44;5022726;28;20106;-77
2023/06/20 11:12:56;;;;;;;6.25;4.35;;;;;;;31.21;27.51;99331.94;5022419;28;20113;-77
2023/06/20 11:15:24;;;;;;;8.63;4.43;;;;;;;31.51;26.75;99330.16;5025975;28;20036;-78
2023/06/20 11:17:50;;;;;;;5.95;3.83;;;;;;;31.88;26.75;99320.63;5050107;28;20052;-78
2023/06/20 11:20:19;;;;;;;6.57;3.45;;;;;;;32.04;26.31;99328.09;5043176;28;20029;-78
2023/06/20 11:22:48;;;;;;;5.55;4.65;;;;;;;32.29;26.86;99322.38;5042629;28;20039;-75
2023/06/20 11:25:22;;;;;;;12.55;5.00;;;;;;;31.69;26.82;99325.63;5049960;28;20047;-77
2023/06/20 11:27:47;;;;;;;4.90;4.00;;;;;;;31.56;26.23;99327.91;5041301;28;20025;-74